Time;durP1;ratioP1;P1;durP2;ratioP2;P2;SDS_P1;SDS_P2;PMS_P1;PMS_P2;Temp;Humidity;BMP_temperature;BMP_pressure;BME280_temperature;BME280_humidity;BME280_pressure;Samples;Min_cycle;Max_cycle;Signal;HPM_P1;HPM_P2
2021/06/24 00:01:42;;;;;;;12.70;6.27;;;17.40;69.40;;;;;;4973097;28;20533;-82
2021/06/24 00:04:08;;;;;;;8.70;5.70;;;17.40;69.40;;;;;;4972692;28;20219;-82
2021/06/24 00:06:34;;;;;;;8.70;6.10;;;17.50;69.10;;;;;;4989649;28;20218;-83
2021/06/24 00:09:00;;;;;;;9.90;6.97;;;17.50;69.00;;;;;;4989575;28;20489;-81
2021/06/24 00:11:26;;;;;;;10.80;6.90;;;17.50;69.50;;;;;;4989879;28;20496;-82
2021/06/24 00:13:52;;;;;;;11.03;6.50;;;17.40;69.50;;;;;;4988774;28;20184;-82
2021/06/24 00:16:17;;;;;;;17.23;6.87;;;17.30;69.50;;;;;;5005623;28;20410;-82
2021/06/24 00:18:43;;;;;;;11.37;6.90;;;17.20;70.40;;;;;;4982584;28;20418;-82
2021/06/24 00:21:09;;;;;;;9.17;6.97;;;17.20;70.50;;;;;;4981407;28;20246;-82
2021/06/24 00:23:35;;;;;;;8.60;6.23;;;17.30;70.10;;;;;;4980744;28;20187;-82
2021/06/24 00:26:01;;;;;;;10.27;6.57;;;17.20;70.00;;;;;;4980728;28;20183;-83
2021/06/24 00:28:28;;;;;;;11.38;6.38;;;17.20;70.20;;;;;;4980974;28;20214;-82
2021/06/24 00:30:55;;;;;;;18.00;7.00;;;17.30;70.80;;;;;;4980185;28;20225;-82
2021/06/24 00:33:21;;;;;;;12.93;6.53;;;17.30;70.20;;;;;;4980613;28;20171;-83
2021/06/24 00:35:48;;;;;;;13.10;7.35;;;17.20;70.50;;;;;;4980223;28;20202;-82
2021/06/24 00:38:14;;;;;;;9.57;7.25;;;17.10;70.80;;;;;;4980060;28;20175;-83
2021/06/24 00:40:41;;;;;;;10.00;7.15;;;17.10;70.90;;;;;;4982802;28;20183;-83
2021/06/24 00:43:09;;;;;;;8.50;6.75;;;17.10;71.00;;;;;;4990326;28;20523;-83
2021/06/24 00:45:36;;;;;;;8.98;7.28;;;17.10;71.10;;;;;;4984288;28;20179;-83
2021/06/24 00:48:04;;;;;;;15.20;6.93;;;17.10;70.70;;;;;;5000814;28;20218;-83
2021/06/24 00:50:30;;;;;;;10.85;6.47;;;17.30;70.60;;;;;;4981989;28;20237;-82
2021/06/24 00:52:55;;;;;;;13.10;6.45;;;17.30;70.20;;;;;;4984639;28;20266;-82
2021/06/24 00:55:40;;;;;;;13.73;7.30;;;17.30;70.30;;;;;;4988583;28;20179;-83
2021/06/24 00:58:13;;;;;;;6.45;5.82;;;17.30;70.20;;;;;;4984326;28;20176;-82
2021/06/24 01:00:41;;;;;;;9.30;6.28;;;17.30;70.80;;;;;;4982936;28;20242;-83
2021/06/24 01:03:08;;;;;;;11.52;6.65;;;17.20;71.20;;;;;;4982332;28;20199;-83
2021/06/24 01:05:36;;;;;;;12.45;7.90;;;17.10;71.40;;;;;;4999539;28;20185;-84
2021/06/24 01:08:03;;;;;;;15.57;7.00;;;17.10;71.20;;;;;;4984574;28;20266;-82
2021/06/24 01:10:29;;;;;;;11.77;7.22;;;17.20;70.70;;;;;;4984476;28;20191;-83
2021/06/24 01:12:55;;;;;;;8.13;6.13;;;17.30;70.60;;;;;;4990286;28;20258;-83
2021/06/24 01:15:21;;;;;;;8.02;6.45;;;17.30;70.50;;;;;;4986316;28;20183;-82
2021/06/24 01:17:47;;;;;;;13.73;7.20;;;17.20;70.60;;;;;;4985062;28;20171;-82
2021/06/24 01:20:13;;;;;;;9.30;6.27;;;17.20;70.50;;;;;;4984455;28;20215;-82
2021/06/24 01:22:39;;;;;;;9.68;6.47;;;17.30;70.50;;;;;;4983743;28;20195;-83
2021/06/24 01:25:06;;;;;;;12.75;6.80;;;17.40;70.00;;;;;;4984885;28;20190;-82
2021/06/24 01:27:32;;;;;;;8.43;6.13;;;17.20;70.00;;;;;;4985168;28;20176;-83
2021/06/24 01:29:58;;;;;;;12.50;6.57;;;17.20;70.20;;;;;;4984517;28;20191;-82
2021/06/24 01:32:30;;;;;;;9.70;7.00;;;17.10;70.80;;;;;;4983820;28;20284;-83
2021/06/24 01:34:56;;;;;;;8.95;7.00;;;17.20;70.50;;;;;;4984420;28;20182;-82
2021/06/24 01:37:22;;;;;;;8.73;6.57;;;17.10;70.70;;;;;;4985154;28;20206;-84
2021/06/24 01:39:48;;;;;;;10.20;6.83;;;17.00;70.90;;;;;;4986817;28;20913;-83
2021/06/24 01:42:32;;;;;;;11.03;6.80;;;16.90;71.30;;;;;;4986346;28;20449;-83
2021/06/24 01:44:58;;;;;;;6.57;5.90;;;16.90;71.60;;;;;;5006279;28;20176;-84
2021/06/24 01:47:24;;;;;;;11.00;6.50;;;17.00;71.40;;;;;;4993620;28;20197;-83
2021/06/24 01:49:50;;;;;;;10.53;6.40;;;17.00;71.80;;;;;;4995513;28;20187;-83
2021/06/24 01:52:15;;;;;;;8.50;6.30;;;16.90;71.90;;;;;;4987706;28;20223;-82
2021/06/24 01:54:47;;;;;;;8.57;7.10;;;16.90;71.40;;;;;;4987692;28;20418;-83
2021/06/24 01:57:17;;;;;;;8.77;6.88;;;16.80;72.00;;;;;;5003073;28;20604;-83
2021/06/24 01:59:45;;;;;;;9.85;6.30;;;16.80;72.30;;;;;;4985134;28;20630;-82
2021/06/24 02:02:11;;;;;;;7.90;6.70;;;16.90;72.10;;;;;;4984189;28;20234;-81
2021/06/24 02:04:36;;;;;;;7.77;6.40;;;16.90;71.80;;;;;;5000534;28;20180;-82
2021/06/24 02:07:03;;;;;;;7.67;6.87;;;16.80;71.90;;;;;;4983546;28;20410;-82
2021/06/24 02:09:28;;;;;;;8.30;6.07;;;16.90;72.00;;;;;;5003544;28;20183;-82
2021/06/24 02:11:55;;;;;;;12.77;7.13;;;16.90;71.70;;;;;;5000541;28;20215;-82
2021/06/24 02:14:21;;;;;;;8.75;5.63;;;17.00;71.60;;;;;;4983814;28;20186;-82
2021/06/24 02:16:47;;;;;;;10.80;8.03;;;16.90;71.80;;;;;;4982895;28;20175;-83
2021/06/24 02:19:14;;;;;;;11.53;6.67;;;16.70;71.90;;;;;;4981790;28;20445;-82
2021/06/24 02:21:40;;;;;;;14.80;7.43;;;16.90;72.00;;;;;;4981866;28;20248;-83
2021/06/24 02:24:06;;;;;;;10.80;6.70;;;16.90;72.00;;;;;;4980504;28;20270;-82
2021/06/24 02:26:32;;;;;;;11.90;6.90;;;16.80;71.90;;;;;;4999374;28;20156;-83
2021/06/24 02:28:58;;;;;;;13.50;9.53;;;16.90;72.00;;;;;;4990297;28;20423;-81
2021/06/24 02:31:24;;;;;;;12.60;7.40;;;16.90;72.10;;;;;;4990416;28;20215;-82
2021/06/24 02:33:51;;;;;;;6.18;5.57;;;16.90;72.10;;;;;;4991051;28;20407;-82
2021/06/24 02:36:16;;;;;;;7.28;6.40;;;16.80;72.10;;;;;;5004214;28;20187;-82
2021/06/24 02:38:42;;;;;;;8.17;7.33;;;16.80;72.20;;;;;;5004940;28;20199;-83
2021/06/24 02:41:08;;;;;;;9.23;6.90;;;16.90;72.30;;;;;;4985619;28;20192;-83
2021/06/24 02:43:34;;;;;;;13.57;7.70;;;16.80;72.50;;;;;;4983007;28;20585;-83
2021/06/24 02:45:59;;;;;;;8.33;7.47;;;16.60;72.60;;;;;;4983208;28;20570;-83
2021/06/24 02:48:25;;;;;;;8.90;7.33;;;16.70;72.90;;;;;;4984297;28;20540;-82
2021/06/24 02:50:51;;;;;;;11.83;7.70;;;16.60;73.00;;;;;;4992383;28;20942;-83
2021/06/24 02:53:17;;;;;;;17.30;8.97;;;16.70;73.20;;;;;;5002369;28;20458;-82
2021/06/24 02:55:43;;;;;;;14.77;8.87;;;16.60;73.00;;;;;;4984832;28;20421;-82
2021/06/24 02:58:10;;;;;;;11.73;7.38;;;16.50;73.50;;;;;;5001500;28;20408;-83
2021/06/24 03:00:36;;;;;;;8.55;7.70;;;16.40;73.60;;;;;;4982983;28;20183;-82
2021/06/24 03:03:01;;;;;;;12.48;7.38;;;16.40;73.80;;;;;;4983516;28;20701;-82
2021/06/24 03:05:27;;;;;;;10.27;7.27;;;16.40;73.90;;;;;;5000745;28;20184;-83
2021/06/24 03:07:53;;;;;;;8.80;7.80;;;16.40;74.00;;;;;;5000462;28;20269;-82
2021/06/24 03:10:20;;;;;;;11.40;8.30;;;16.40;74.00;;;;;;4981770;28;20434;-82
2021/06/24 03:12:46;;;;;;;14.68;7.90;;;16.30;74.30;;;;;;4982343;28;20211;-82
2021/06/24 03:15:13;;;;;;;11.20;7.22;;;16.50;74.10;;;;;;4983124;28;20175;-83
2021/06/24 03:17:38;;;;;;;9.52;8.10;;;16.40;74.10;;;;;;4984034;28;20230;-84
2021/06/24 03:20:07;;;;;;;9.97;8.87;;;16.40;74.20;;;;;;5001052;28;20171;-83
2021/06/24 03:22:34;;;;;;;18.20;7.85;;;16.30;74.50;;;;;;4982319;28;20685;-83
2021/06/24 03:25:01;;;;;;;9.07;8.27;;;16.20;74.70;;;;;;4981505;28;20186;-83
2021/06/24 03:27:28;;;;;;;11.57;8.90;;;16.30;75.00;;;;;;4981642;28;20202;-84
2021/06/24 03:29:54;;;;;;;9.52;8.60;;;16.10;75.30;;;;;;4982626;28;20185;-83
2021/06/24 03:32:19;;;;;;;12.10;9.90;;;16.20;75.40;;;;;;4982191;28;20712;-82
2021/06/24 03:34:45;;;;;;;9.60;8.50;;;16.30;75.50;;;;;;4982943;28;20277;-83
2021/06/24 03:37:11;;;;;;;11.67;9.13;;;16.30;75.20;;;;;;5000829;28;20182;-82
2021/06/24 03:39:38;;;;;;;20.73;10.53;;;16.20;74.70;;;;;;4989979;28;20194;-83
2021/06/24 03:42:05;;;;;;;21.63;11.20;;;16.30;75.00;;;;;;5000941;28;20442;-82
2021/06/24 03:44:31;;;;;;;13.40;9.77;;;16.20;75.00;;;;;;4983633;28;20187;-82
2021/06/24 03:46:57;;;;;;;9.90;8.87;;;16.30;75.30;;;;;;5003368;28;20171;-82
2021/06/24 03:49:22;;;;;;;11.07;9.20;;;16.20;75.10;;;;;;4999619;28;20449;-82
2021/06/24 03:51:48;;;;;;;10.70;9.60;;;16.20;75.00;;;;;;4999114;28;20512;-82
2021/06/24 03:54:14;;;;;;;11.90;10.40;;;16.20;74.90;;;;;;5006077;28;20808;-82
2021/06/24 03:56:40;;;;;;;15.00;10.60;;;16.30;75.00;;;;;;4985916;28;20596;-82
2021/06/24 03:59:06;;;;;;;17.80;9.90;;;16.30;75.00;;;;;;4983296;28;20422;-83
2021/06/24 04:01:32;;;;;;;13.53;9.80;;;16.30;75.00;;;;;;5000638;28;20223;-83
2021/06/24 04:03:58;;;;;;;13.43;9.43;;;16.10;74.90;;;;;;4983127;28;20943;-83
2021/06/24 04:06:24;;;;;;;14.07;10.07;;;16.20;75.30;;;;;;4983853;28;20465;-83
2021/06/24 04:08:49;;;;;;;13.77;9.60;;;16.20;75.00;;;;;;4983568;28;20274;-83
2021/06/24 04:11:15;;;;;;;17.57;10.67;;;16.30;74.80;;;;;;4983038;28;20627;-82
2021/06/24 04:13:41;;;;;;;13.38;9.43;;;16.30;74.50;;;;;;4983130;28;20627;-83
2021/06/24 04:16:07;;;;;;;15.47;9.40;;;16.30;74.70;;;;;;4983162;28;20412;-83
2021/06/24 04:18:33;;;;;;;10.47;9.37;;;16.30;74.70;;;;;;4982732;28;20175;-83
2021/06/24 04:20:59;;;;;;;12.98;9.68;;;16.40;74.40;;;;;;5000184;28;20207;-83
2021/06/24 04:23:25;;;;;;;11.23;9.48;;;16.50;74.30;;;;;;5000650;28;20265;-83
2021/06/24 04:25:51;;;;;;;9.80;8.20;;;16.40;73.50;;;;;;4981438;28;20634;-83
2021/06/24 04:28:17;;;;;;;11.97;8.57;;;16.40;73.80;;;;;;4982422;28;20418;-80
2021/06/24 04:30:42;;;;;;;12.47;9.03;;;16.40;73.80;;;;;;4982758;28;20642;-82
2021/06/24 04:33:08;;;;;;;12.90;7.73;;;16.40;73.60;;;;;;4982179;28;20553;-82
2021/06/24 04:35:36;;;;;;;15.23;10.30;;;16.50;73.70;;;;;;4989450;28;20175;-80
2021/06/24 04:38:03;;;;;;;17.48;9.65;;;16.50;73.50;;;;;;4983061;28;20179;-80
2021/06/24 04:40:28;;;;;;;13.30;9.45;;;16.40;73.20;;;;;;5000274;28;20182;-81
2021/06/24 04:42:54;;;;;;;12.40;9.90;;;16.50;73.50;;;;;;4985104;28;20175;-81
2021/06/24 04:45:20;;;;;;;17.60;9.90;;;16.50;74.10;;;;;;4987245;28;20250;-81
2021/06/24 04:47:48;;;;;;;17.08;9.90;;;16.50;73.20;;;;;;4987386;28;20411;-81
2021/06/24 04:50:15;;;;;;;14.07;10.57;;;16.60;73.10;;;;;;5001690;28;20202;-83
2021/06/24 04:52:40;;;;;;;15.43;9.75;;;16.40;73.60;;;;;;4998889;28;20207;-83
2021/06/24 04:55:07;;;;;;;11.27;9.50;;;16.40;73.80;;;;;;5001032;28;20258;-83
2021/06/24 04:57:35;;;;;;;12.50;9.73;;;16.50;74.00;;;;;;5003991;28;20222;-82
2021/06/24 05:00:01;;;;;;;15.85;8.65;;;16.60;73.60;;;;;;5014621;28;20187;-82
2021/06/24 05:02:27;;;;;;;19.05;9.93;;;16.70;73.90;;;;;;5006794;28;20218;-82
2021/06/24 05:04:55;;;;;;;11.60;8.57;;;16.60;73.00;;;;;;5007805;28;20179;-82
2021/06/24 05:07:21;;;;;;;8.93;8.02;;;16.60;72.90;;;;;;5022384;28;20183;-81
2021/06/24 05:09:46;;;;;;;10.17;7.43;;;16.60;73.00;;;;;;5005607;28;20182;-81
2021/06/24 05:12:13;;;;;;;12.87;8.80;;;16.50;73.10;;;;;;5001962;28;20619;-82
2021/06/24 05:14:43;;;;;;;17.80;10.48;;;16.60;73.10;;;;;;5014606;28;20171;-82
2021/06/24 05:17:13;;;;;;;12.52;8.23;;;16.70;72.80;;;;;;4999329;28;20206;-82
2021/06/24 05:19:40;;;;;;;10.95;8.50;;;16.70;72.60;;;;;;5004771;28;20210;-82
2021/06/24 05:22:07;;;;;;;12.07;8.18;;;16.60;72.30;;;;;;5019452;28;20207;-82
2021/06/24 05:24:33;;;;;;;10.20;8.13;;;16.70;72.70;;;;;;5005435;28;20194;-81
2021/06/24 05:26:59;;;;;;;16.00;9.97;;;16.70;72.70;;;;;;5007574;28;20179;-81
2021/06/24 05:29:25;;;;;;;11.90;8.80;;;16.70;72.40;;;;;;5006275;28;20426;-82
2021/06/24 05:31:50;;;;;;;8.37;7.53;;;16.80;72.50;;;;;;5013222;28;20278;-82
2021/06/24 05:34:17;;;;;;;19.83;9.03;;;16.80;72.20;;;;;;5006735;28;20677;-82
2021/06/24 05:36:43;;;;;;;11.40;8.05;;;16.70;72.10;;;;;;5009800;28;20175;-81
2021/06/24 05:39:09;;;;;;;10.77;8.10;;;16.60;72.00;;;;;;5003263;28;20194;-82
2021/06/24 05:41:36;;;;;;;13.50;8.68;;;16.50;72.60;;;;;;4984324;28;20442;-81
2021/06/24 05:44:02;;;;;;;9.55;7.32;;;16.50;72.70;;;;;;4985787;28;20187;-81
2021/06/24 05:46:28;;;;;;;17.95;8.00;;;16.60;72.30;;;;;;4987239;28;20209;-81
2021/06/24 05:48:54;;;;;;;13.52;8.55;;;16.50;72.20;;;;;;4984736;28;20187;-82
2021/06/24 05:51:23;;;;;;;12.25;8.50;;;16.50;72.50;;;;;;4986377;28;20207;-82
2021/06/24 05:53:49;;;;;;;9.55;7.63;;;16.50;72.60;;;;;;5016095;28;20187;-82
2021/06/24 05:56:15;;;;;;;9.90;8.20;;;16.70;72.20;;;;;;5006623;28;20179;-82
2021/06/24 05:58:41;;;;;;;19.17;7.53;;;16.80;71.70;;;;;;5006505;28;20222;-82
2021/06/24 06:01:07;;;;;;;11.57;8.10;;;16.70;71.80;;;;;;5007844;28;20281;-82
2021/06/24 06:03:33;;;;;;;12.45;8.05;;;16.70;72.00;;;;;;5009956;28;20680;-82
2021/06/24 06:06:00;;;;;;;9.80;7.55;;;16.70;72.50;;;;;;5023803;28;20174;-82
2021/06/24 06:08:27;;;;;;;9.27;6.85;;;16.80;71.90;;;;;;5023129;28;20171;-81
2021/06/24 06:10:53;;;;;;;16.13;8.13;;;17.00;71.40;;;;;;4986110;28;20274;-81
2021/06/24 06:13:19;;;;;;;16.13;8.70;;;17.10;71.00;;;;;;4984603;28;20238;-82
2021/06/24 06:15:48;;;;;;;12.27;7.80;;;17.20;70.50;;;;;;4985666;28;20414;-81
2021/06/24 06:18:18;;;;;;;10.60;7.63;;;17.10;70.80;;;;;;4985411;28;20271;-82
2021/06/24 06:20:45;;;;;;;15.85;10.00;;;17.10;70.50;;;;;;4985896;28;20524;-81
2021/06/24 06:23:16;;;;;;;10.55;7.47;;;17.20;71.00;;;;;;5009056;28;20254;-81
2021/06/24 06:25:44;;;;;;;14.98;7.78;;;17.10;70.40;;;;;;4987315;28;20183;-84
2021/06/24 06:28:10;;;;;;;12.82;7.43;;;17.10;70.00;;;;;;4984073;28;20186;-85
2021/06/24 06:30:36;;;;;;;10.05;6.78;;;17.30;70.80;;;;;;4982769;28;20191;-86
2021/06/24 06:33:02;;;;;;;10.82;8.00;;;17.60;70.00;;;;;;5001368;28;20566;-86
2021/06/24 06:35:30;;;;;;;8.32;6.03;;;17.90;69.20;;;;;;4983312;28;20183;-85
2021/06/24 06:37:55;;;;;;;12.95;6.90;;;17.90;67.80;;;;;;4980992;28;20631;-85
2021/06/24 06:40:21;;;;;;;14.03;6.20;;;18.00;67.20;;;;;;4980230;28;20226;-86
2021/06/24 06:42:47;;;;;;;7.53;6.77;;;18.00;67.00;;;;;;4998015;28;20198;-86
2021/06/24 06:45:14;;;;;;;9.10;7.18;;;18.10;67.20;;;;;;4979989;28;20183;-86
2021/06/24 06:47:40;;;;;;;15.27;6.90;;;18.20;66.60;;;;;;4980070;28;20190;-87
2021/06/24 06:50:06;;;;;;;8.47;6.60;;;18.20;66.30;;;;;;4978983;28;20199;-86
2021/06/24 06:52:32;;;;;;;8.65;6.82;;;18.30;66.20;;;;;;4978424;28;20470;-86
2021/06/24 06:54:58;;;;;;;11.43;7.10;;;18.30;66.10;;;;;;4979510;28;20214;-86
2021/06/24 06:57:23;;;;;;;8.40;7.50;;;18.20;66.20;;;;;;4995282;28;20414;-86
2021/06/24 06:59:49;;;;;;;9.47;6.37;;;18.30;66.10;;;;;;4998811;28;20414;-87
2021/06/24 07:02:16;;;;;;;14.53;7.57;;;18.40;66.10;;;;;;4987957;28;20584;-87
2021/06/24 07:04:41;;;;;;;8.35;6.95;;;18.50;65.50;;;;;;4986041;28;20295;-86
2021/06/24 07:07:07;;;;;;;10.00;6.90;;;18.50;65.40;;;;;;4985797;28;20199;-86
2021/06/24 07:09:33;;;;;;;10.13;6.60;;;18.50;65.70;;;;;;5004405;28;20369;-87
2021/06/24 07:11:59;;;;;;;14.13;7.00;;;18.40;65.50;;;;;;4978873;28;20222;-86
2021/06/24 07:14:24;;;;;;;18.30;8.27;;;18.30;65.60;;;;;;4979204;28;20195;-86
2021/06/24 07:16:50;;;;;;;12.60;7.07;;;18.50;65.60;;;;;;4979225;28;20525;-86
2021/06/24 07:19:16;;;;;;;6.10;5.60;;;18.60;65.10;;;;;;4979421;28;20270;-86
2021/06/24 07:21:42;;;;;;;8.70;5.63;;;18.50;65.80;;;;;;4979580;28;20210;-86
2021/06/24 07:24:08;;;;;;;7.80;7.00;;;18.70;65.70;;;;;;4968077;28;20203;-87
2021/06/24 07:26:37;;;;;;;10.63;6.57;;;19.10;64.50;;;;;;4982343;28;20584;-87
2021/06/24 07:29:02;;;;;;;6.80;5.97;;;19.50;62.90;;;;;;4981804;28;20187;-86
2021/06/24 07:31:28;;;;;;;12.87;6.43;;;19.50;61.90;;;;;;4980663;28;20245;-86
2021/06/24 07:33:54;;;;;;;11.10;6.30;;;19.50;61.80;;;;;;4980812;28;20206;-86
2021/06/24 07:36:20;;;;;;;8.40;5.50;;;19.40;61.80;;;;;;4980241;28;20230;-86
2021/06/24 07:38:45;;;;;;;15.00;5.90;;;19.20;61.90;;;;;;4997533;28;20198;-86
2021/06/24 07:41:11;;;;;;;9.73;6.00;;;19.30;62.00;;;;;;4979359;28;20438;-86
2021/06/24 07:43:37;;;;;;;11.30;5.80;;;19.20;61.50;;;;;;4984561;28;20269;-87
2021/06/24 07:46:03;;;;;;;9.30;5.80;;;19.20;61.70;;;;;;4979929;28;20181;-87
2021/06/24 07:48:29;;;;;;;10.67;5.93;;;19.30;62.20;;;;;;4981021;28;20474;-87
2021/06/24 07:50:54;;;;;;;11.90;6.80;;;19.10;62.60;;;;;;4994211;28;20438;-87
2021/06/24 07:53:20;;;;;;;7.40;5.83;;;19.10;62.60;;;;;;4978550;28;20569;-86
2021/06/24 07:55:46;;;;;;;10.77;6.30;;;19.40;62.50;;;;;;4978482;28;20179;-86
2021/06/24 07:58:12;;;;;;;9.47;5.77;;;19.60;61.80;;;;;;4978356;28;20414;-87
2021/06/24 08:00:38;;;;;;;14.77;6.43;;;19.80;61.40;;;;;;4978495;28;20347;-87
2021/06/24 08:03:05;;;;;;;11.88;5.68;;;20.10;60.40;;;;;;4979556;28;20468;-86
2021/06/24 08:05:31;;;;;;;8.90;5.37;;;20.50;59.50;;;;;;4978502;28;20179;-87
2021/06/24 08:07:59;;;;;;;8.43;4.50;;;20.70;57.70;;;;;;4979770;28;20449;-87
2021/06/24 08:10:25;;;;;;;8.50;5.27;;;21.00;56.70;;;;;;4998133;28;20411;-86
2021/06/24 08:12:51;;;;;;;8.87;5.07;;;21.00;55.70;;;;;;5010756;28;20461;-86
2021/06/24 08:15:20;;;;;;;7.20;4.60;;;21.10;56.10;;;;;;4980395;28;20511;-87
2021/06/24 08:17:46;;;;;;;8.93;4.23;;;21.40;55.30;;;;;;4978135;28;20710;-87
2021/06/24 08:20:15;;;;;;;8.03;5.37;;;21.30;54.90;;;;;;4978119;28;20453;-87
2021/06/24 08:22:41;;;;;;;11.87;5.50;;;21.10;54.90;;;;;;4984238;28;20540;-87
2021/06/24 08:25:14;;;;;;;10.40;5.50;;;21.10;54.50;;;;;;4981342;28;20422;-87
2021/06/24 08:27:40;;;;;;;11.60;5.30;;;21.30;54.80;;;;;;4994191;28;20423;-87
2021/06/24 08:30:08;;;;;;;6.53;4.80;;;21.20;54.60;;;;;;4982905;28;20433;-86
2021/06/24 08:32:34;;;;;;;6.30;5.63;;;21.10;54.80;;;;;;4977403;28;20238;-86
2021/06/24 08:35:01;;;;;;;7.83;5.73;;;21.00;54.70;;;;;;4977943;28;20418;-86
2021/06/24 08:37:27;;;;;;;6.23;5.03;;;21.00;54.20;;;;;;4996409;28;20777;-86
2021/06/24 08:39:53;;;;;;;19.00;7.07;;;21.20;54.60;;;;;;4979826;28;20429;-86
2021/06/24 08:42:19;;;;;;;16.70;7.27;;;21.20;53.60;;;;;;4985332;28;20206;-87
2021/06/24 08:44:45;;;;;;;11.60;7.00;;;21.20;53.50;;;;;;4978139;28;20183;-87
2021/06/24 08:47:15;;;;;;;13.50;7.17;;;21.10;52.50;;;;;;4977826;28;20183;-87
2021/06/24 08:49:42;;;;;;;8.37;6.23;;;21.00;52.70;;;;;;4986848;28;20430;-87
2021/06/24 08:52:09;;;;;;;21.10;7.00;;;21.20;53.60;;;;;;4993319;28;20759;-87
2021/06/24 08:54:36;;;;;;;13.63;8.53;;;21.30;53.00;;;;;;4994083;28;20421;-87
2021/06/24 08:57:03;;;;;;;8.47;6.63;;;21.30;52.70;;;;;;4993541;28;20513;-87
2021/06/24 08:59:29;;;;;;;10.03;8.57;;;21.10;52.90;;;;;;4997052;28;20418;-87
2021/06/24 09:01:59;;;;;;;9.20;7.17;;;21.10;51.90;;;;;;5008411;28;20466;-87
2021/06/24 09:04:29;;;;;;;11.90;7.27;;;21.20;51.80;;;;;;5006174;28;20190;-86
2021/06/24 09:07:09;;;;;;;11.73;7.93;;;21.10;51.50;;;;;;5008344;28;20432;-86
2021/06/24 09:09:36;;;;;;;9.57;8.00;;;21.00;51.70;;;;;;5002865;28;20426;-86
2021/06/24 09:12:08;;;;;;;11.60;8.00;;;21.20;51.80;;;;;;4991840;28;20493;-88
2021/06/24 09:14:45;;;;;;;8.20;6.87;;;21.20;52.10;;;;;;4991193;28;20418;-87
2021/06/24 09:17:30;;;;;;;8.35;7.40;;;21.00;51.50;;;;;;5011601;28;20445;-87
2021/06/24 09:19:56;;;;;;;8.73;7.93;;;20.90;51.80;;;;;;4978264;28;20175;-87
2021/06/24 09:22:22;;;;;;;10.10;8.00;;;20.80;51.80;;;;;;4977509;28;20206;-87
2021/06/24 09:24:49;;;;;;;10.33;8.63;;;20.80;51.90;;;;;;4977357;28;20534;-86
2021/06/24 09:27:18;;;;;;;8.93;7.22;;;20.70;51.50;;;;;;4977032;28;20190;-87
2021/06/24 09:29:48;;;;;;;6.43;5.82;;;20.50;52.00;;;;;;4980669;28;20187;-87
2021/06/24 09:32:37;;;;;;;8.85;7.63;;;20.50;52.60;;;;;;4980680;28;20203;-87
2021/06/24 09:35:08;;;;;;;13.82;7.65;;;20.50;52.00;;;;;;4981091;28;20550;-87
2021/06/24 09:38:00;;;;;;;14.52;7.90;;;20.60;51.80;;;;;;4981057;28;20234;-87
2021/06/24 09:40:39;;;;;;;15.88;7.47;;;20.70;52.50;;;;;;4997621;28;20298;-88
2021/06/24 09:43:05;;;;;;;8.02;7.10;;;20.80;52.00;;;;;;4998189;28;20174;-87
2021/06/24 09:45:31;;;;;;;11.85;7.70;;;20.90;52.80;;;;;;4980699;28;20330;-87
2021/06/24 09:48:11;;;;;;;20.90;7.50;;;21.00;53.70;;;;;;4980987;28;20218;-87
2021/06/24 09:50:40;;;;;;;9.00;6.20;;;21.10;53.80;;;;;;4960747;28;20279;-87
2021/06/24 09:53:10;;;;;;;8.17;6.53;;;21.30;53.50;;;;;;4961210;28;20473;-87
2021/06/24 09:55:36;;;;;;;9.50;6.40;;;21.30;52.80;;;;;;4960980;28;20422;-87
2021/06/24 09:58:16;;;;;;;12.57;6.77;;;21.50;52.30;;;;;;4961782;28;20470;-87
2021/06/24 10:00:53;;;;;;;8.70;7.83;;;21.40;52.60;;;;;;4960959;28;20426;-87
2021/06/24 10:03:20;;;;;;;10.50;7.33;;;21.20;51.90;;;;;;4962310;28;20445;-86
2021/06/24 10:05:49;;;;;;;11.50;7.80;;;21.30;52.70;;;;;;4964207;28;20435;-87
2021/06/24 10:08:15;;;;;;;9.10;6.63;;;21.20;53.30;;;;;;4966643;28;20447;-86
2021/06/24 10:10:43;;;;;;;9.27;7.23;;;21.30;53.80;;;;;;4976893;28;20465;-87
2021/06/24 10:13:09;;;;;;;10.33;7.67;;;21.20;53.80;;;;;;4980704;28;20980;-87
2021/06/24 10:15:36;;;;;;;7.97;7.17;;;21.10;54.20;;;;;;4981678;28;20461;-87
2021/06/24 10:18:03;;;;;;;10.03;7.60;;;21.00;54.00;;;;;;4981661;28;20430;-87
2021/06/24 10:20:30;;;;;;;11.10;7.87;;;21.10;54.00;;;;;;4981805;28;20419;-86
2021/06/24 10:23:07;;;;;;;8.27;7.47;;;21.20;53.40;;;;;;4994037;28;20414;-86
2021/06/24 10:25:34;;;;;;;15.80;8.10;;;20.80;53.20;;;;;;4981023;28;20477;-87
2021/06/24 10:28:01;;;;;;;8.07;6.90;;;20.80;53.60;;;;;;4980094;28;20917;-87
2021/06/24 10:30:27;;;;;;;7.80;6.67;;;20.90;53.90;;;;;;4979321;28;20952;-87
2021/06/24 10:33:01;;;;;;;9.37;7.20;;;21.10;53.60;;;;;;4980128;28;20569;-87
2021/06/24 10:35:27;;;;;;;12.33;7.87;;;21.00;52.90;;;;;;4980718;28;20420;-86
2021/06/24 10:37:54;;;;;;;13.37;7.50;;;21.30;52.20;;;;;;4980376;28;20922;-87
2021/06/24 10:40:44;;;;;;;12.00;7.80;;;21.50;51.00;;;;;;4979500;28;20180;-88
2021/06/24 10:43:15;;;;;;;12.77;7.87;;;21.80;49.90;;;;;;4979951;28;20406;-86
2021/06/24 10:45:43;;;;;;;12.70;8.70;;;21.80;49.20;;;;;;4979742;28;20434;-86
2021/06/24 10:48:31;;;;;;;12.63;8.20;;;21.70;49.10;;;;;;4979735;28;20932;-85
2021/06/24 10:51:08;;;;;;;10.27;8.80;;;21.70;48.90;;;;;;4995383;28;20450;-87
2021/06/24 10:53:39;;;;;;;14.37;8.27;;;21.80;47.90;;;;;;4995653;28;20768;-86
2021/06/24 10:56:44;;;;;;;11.67;8.37;;;21.80;47.90;;;;;;4996468;28;20407;-87
2021/06/24 10:59:27;;;;;;;13.57;7.93;;;22.00;48.30;;;;;;4988489;28;20430;-87
2021/06/24 11:02:08;;;;;;;12.97;7.57;;;22.30;47.40;;;;;;4995845;28;20462;-87
2021/06/24 11:04:38;;;;;;;11.00;8.17;;;22.50;47.30;;;;;;5004160;28;20410;-87
2021/06/24 11:07:25;;;;;;;13.03;8.77;;;22.50;47.40;;;;;;4996803;28;21171;-87
2021/06/24 11:10:29;;;;;;;10.47;9.47;;;22.30;48.00;;;;;;4990439;28;20426;-87
2021/06/24 11:13:04;;;;;;;13.70;8.80;;;22.70;46.80;;;;;;4980382;28;20446;-87
2021/06/24 11:15:50;;;;;;;12.43;8.20;;;22.70;47.50;;;;;;4980025;28;20406;-87
2021/06/24 11:18:31;;;;;;;11.70;8.57;;;22.60;46.30;;;;;;4980560;28;20406;-87
2021/06/24 11:21:07;;;;;;;12.43;8.40;;;22.50;46.90;;;;;;4997303;28;20430;-86
2021/06/24 11:23:37;;;;;;;12.60;9.60;;;21.90;48.20;;;;;;4979687;28;20406;-87
2021/06/24 11:26:06;;;;;;;10.17;9.17;;;22.00;49.50;;;;;;4984933;28;20496;-87
2021/06/24 11:28:41;;;;;;;11.53;8.23;;;22.00;49.30;;;;;;4986515;28;20446;-87
2021/06/24 11:31:07;;;;;;;15.57;6.33;;;21.90;48.70;;;;;;4979569;28;20441;-87
2021/06/24 11:33:37;;;;;;;12.37;8.57;;;22.00;49.00;;;;;;4978926;28;20470;-87
2021/06/24 11:36:17;;;;;;;18.13;8.80;;;21.80;49.10;;;;;;4979066;28;20415;-87
2021/06/24 11:38:50;;;;;;;13.63;9.18;;;21.50;50.20;;;;;;4979597;28;20505;-87
2021/06/24 11:41:18;;;;;;;10.37;9.30;;;21.00;51.20;;;;;;4995426;28;20198;-86
2021/06/24 11:44:05;;;;;;;13.45;9.38;;;21.00;51.60;;;;;;4978870;28;20418;-86
2021/06/24 11:46:36;;;;;;;12.45;8.75;;;21.10;51.70;;;;;;4977978;28;20187;-86
2021/06/24 12:05:04;;;;;;;10.40;8.95;;;20.90;52.70;;;;;;4996144;28;20767;-86
2021/06/24 12:07:34;;;;;;;13.07;10.40;;;21.00;53.10;;;;;;4978997;28;20249;-86
2021/06/24 12:09:59;;;;;;;13.23;9.70;;;20.90;53.30;;;;;;4978154;28;20179;-86
2021/06/24 12:12:27;;;;;;;14.07;9.97;;;21.00;53.20;;;;;;4996228;28;20458;-86
2021/06/24 12:15:01;;;;;;;13.43;9.50;;;21.00;53.10;;;;;;4978064;28;20202;-86
2021/06/24 12:17:38;;;;;;;16.10;11.20;;;21.00;53.80;;;;;;4979013;28;20894;-86
2021/06/24 12:20:12;;;;;;;14.00;10.20;;;21.00;53.70;;;;;;4978835;28;20414;-86
2021/06/24 12:22:54;;;;;;;12.37;8.90;;;21.00;54.30;;;;;;4996252;28;20433;-86
2021/06/24 12:25:28;;;;;;;12.20;9.07;;;21.60;53.40;;;;;;4979292;28;20410;-86
2021/06/24 12:27:56;;;;;;;13.40;10.00;;;21.80;52.50;;;;;;4980863;28;20414;-87
2021/06/24 12:30:24;;;;;;;10.10;8.03;;;22.00;51.90;;;;;;4983240;28;20482;-88
2021/06/24 12:32:56;;;;;;;14.43;10.03;;;22.50;51.40;;;;;;4992959;28;20485;-86
2021/06/24 12:35:28;;;;;;;15.37;9.77;;;22.70;49.60;;;;;;4978962;28;20989;-87
2021/06/24 12:37:58;;;;;;;12.23;9.63;;;22.80;48.50;;;;;;4978623;28;20469;-86
2021/06/24 12:40:27;;;;;;;13.80;10.67;;;22.90;48.50;;;;;;4979967;28;20847;-86
2021/06/24 12:42:56;;;;;;;17.60;11.80;;;22.80;49.00;;;;;;4980383;28;20425;-87
2021/06/24 12:45:29;;;;;;;18.93;12.67;;;22.60;49.00;;;;;;4980284;28;21006;-88
2021/06/24 12:47:56;;;;;;;13.67;11.23;;;22.60;48.50;;;;;;4979366;28;20414;-87
2021/06/24 12:50:32;;;;;;;15.17;10.77;;;22.80;48.20;;;;;;4982399;28;20426;-88
2021/06/24 12:53:09;;;;;;;16.50;10.37;;;23.00;49.10;;;;;;5016233;28;20449;-89
2021/06/24 12:55:52;;;;;;;11.73;9.33;;;23.20;48.80;;;;;;5012778;28;20402;-86
2021/06/24 12:58:32;;;;;;;16.60;11.63;;;23.10;49.30;;;;;;5000449;28;20519;-87
2021/06/24 13:01:09;;;;;;;11.77;9.20;;;22.80;48.60;;;;;;4997640;28;20578;-86